Time;durP1;ratioP1;P1;durP2;ratioP2;P2;SDS_P1;SDS_P2;PMS_P1;PMS_P2;Temp;Humidity;BMP_temperature;BMP_pressure;BME280_temperature;BME280_humidity;BME280_pressure;Samples;Min_cycle;Max_cycle;Signal;HPM_P1;HPM_P2
2023/09/16 00:01:08;;;;;;;4.27;3.77;;;23.80;54.60;;;;;;4972134;28;20652;-66
2023/09/16 00:03:35;;;;;;;3.83;3.43;;;23.80;54.60;;;;;;4972419;28;20331;-67
2023/09/16 00:06:01;;;;;;;4.40;3.53;;;23.80;54.60;;;;;;4972106;28;20213;-66
2023/09/16 00:08:26;;;;;;;3.47;3.17;;;23.80;54.60;;;;;;4972194;28;20508;-66
2023/09/16 00:10:52;;;;;;;4.23;3.80;;;23.80;54.60;;;;;;4972000;28;20872;-66
2023/09/16 00:13:18;;;;;;;6.67;3.83;;;23.80;54.60;;;;;;4971867;28;20209;-66
2023/09/16 00:15:48;;;;;;;3.43;3.17;;;23.80;54.50;;;;;;4972168;28;20295;-66
2023/09/16 00:18:15;;;;;;;3.90;3.50;;;23.80;54.60;;;;;;4971965;28;20571;-66
2023/09/16 00:20:41;;;;;;;4.60;3.30;;;23.80;54.60;;;;;;4971926;28;20420;-65
2023/09/16 00:23:07;;;;;;;7.13;3.97;;;23.80;54.60;;;;;;4971832;28;20439;-66
2023/09/16 00:25:33;;;;;;;4.60;3.33;;;23.70;54.50;;;;;;4972147;28;20976;-66
2023/09/16 00:27:58;;;;;;;4.57;3.33;;;23.80;54.60;;;;;;4971982;28;21098;-66
2023/09/16 00:30:24;;;;;;;3.43;3.13;;;23.70;54.50;;;;;;4971851;28;20409;-66
2023/09/16 00:32:49;;;;;;;3.70;3.40;;;23.70;54.50;;;;;;4972047;28;20548;-66
2023/09/16 00:35:15;;;;;;;4.60;4.20;;;23.70;54.40;;;;;;5002878;28;20212;-66
2023/09/16 00:37:43;;;;;;;4.00;3.60;;;23.70;54.40;;;;;;4971762;28;20277;-66
2023/09/16 00:40:09;;;;;;;3.47;3.17;;;23.70;55.00;;;;;;4971787;28;20186;-66
2023/09/16 00:42:38;;;;;;;5.37;3.17;;;23.70;54.30;;;;;;4971650;28;20532;-66
2023/09/16 00:45:06;;;;;;;4.57;3.60;;;23.70;54.40;;;;;;4971933;28;20412;-66
2023/09/16 00:47:33;;;;;;;4.00;3.60;;;23.70;54.30;;;;;;4971739;28;20417;-66
2023/09/16 00:49:59;;;;;;;4.20;3.27;;;23.70;54.30;;;;;;4971694;28;20412;-66
2023/09/16 00:52:26;;;;;;;3.20;2.90;;;23.70;54.40;;;;;;4971568;28;20422;-66
2023/09/16 00:54:53;;;;;;;3.37;3.07;;;23.70;54.40;;;;;;4972382;28;21028;-66
2023/09/16 00:57:19;;;;;;;3.83;3.40;;;23.70;54.40;;;;;;4975372;28;20759;-66
2023/09/16 00:59:45;;;;;;;3.10;2.80;;;23.70;54.30;;;;;;4975270;28;20424;-66
2023/09/16 01:02:11;;;;;;;4.10;3.47;;;23.70;54.40;;;;;;4975179;28;20436;-66
2023/09/16 01:04:41;;;;;;;3.30;3.00;;;23.70;54.30;;;;;;4975177;28;20272;-66
2023/09/16 01:07:07;;;;;;;5.07;4.00;;;23.70;54.20;;;;;;4975128;28;20830;-66
2023/09/16 01:09:33;;;;;;;3.40;3.10;;;23.70;54.20;;;;;;4975107;28;20428;-66
2023/09/16 01:11:59;;;;;;;3.63;2.97;;;23.60;54.20;;;;;;4975160;28;21038;-66
2023/09/16 01:14:24;;;;;;;5.20;3.20;;;23.60;54.20;;;;;;4975047;28;20405;-66
2023/09/16 01:17:02;;;;;;;3.10;2.80;;;23.60;54.20;;;;;;4974893;28;20205;-66
2023/09/16 01:19:50;;;;;;;4.53;3.60;;;23.60;54.20;;;;;;4974934;28;20621;-66
2023/09/16 01:22:17;;;;;;;4.43;3.10;;;23.60;54.20;;;;;;4974928;28;20461;-65
2023/09/16 01:24:50;;;;;;;4.20;3.60;;;23.60;54.20;;;;;;4974825;28;20457;-66
2023/09/16 01:27:15;;;;;;;3.97;3.30;;;23.60;54.20;;;;;;4974807;28;20405;-66
2023/09/16 01:29:41;;;;;;;4.37;3.23;;;23.60;54.20;;;;;;4974788;28;20418;-67
2023/09/16 01:32:10;;;;;;;3.37;3.07;;;23.60;54.10;;;;;;4974628;28;20208;-66
2023/09/16 01:34:49;;;;;;;3.90;3.60;;;23.60;54.20;;;;;;4974668;28;20185;-66
2023/09/16 01:37:21;;;;;;;3.70;3.37;;;23.60;54.20;;;;;;4974714;28;20543;-66
2023/09/16 01:39:50;;;;;;;4.10;3.43;;;23.60;54.20;;;;;;4973298;28;20498;-66
2023/09/16 01:42:16;;;;;;;4.10;3.30;;;23.60;54.20;;;;;;4974728;28;20432;-66
2023/09/16 01:44:42;;;;;;;4.40;3.80;;;23.60;54.10;;;;;;4974552;28;20421;-66
2023/09/16 01:47:07;;;;;;;4.00;3.60;;;23.60;54.10;;;;;;4974475;28;20413;-66
2023/09/16 01:49:33;;;;;;;4.97;3.70;;;23.60;54.10;;;;;;4974702;28;20181;-66
2023/09/16 01:51:59;;;;;;;3.43;3.13;;;23.60;54.00;;;;;;4974317;28;20573;-65
2023/09/16 01:54:24;;;;;;;3.40;2.90;;;23.60;54.00;;;;;;4974386;28;20253;-66
2023/09/16 01:56:50;;;;;;;3.50;3.20;;;23.60;54.00;;;;;;4974278;28;20207;-66
2023/09/16 01:59:15;;;;;;;3.50;3.20;;;23.60;54.00;;;;;;4974217;28;20178;-66
2023/09/16 02:01:42;;;;;;;4.20;3.30;;;23.60;54.10;;;;;;4974214;28;20237;-64
2023/09/16 02:04:08;;;;;;;4.50;3.23;;;23.60;54.10;;;;;;4974256;28;20260;-65
2023/09/16 02:06:34;;;;;;;4.97;4.20;;;23.60;54.00;;;;;;4973439;28;20578;-65
2023/09/16 02:08:59;;;;;;;3.63;3.33;;;23.60;54.10;;;;;;4974098;28;20265;-66
2023/09/16 02:11:25;;;;;;;3.80;3.50;;;23.60;54.10;;;;;;4974127;28;20203;-66
2023/09/16 02:13:51;;;;;;;3.87;3.50;;;23.60;54.10;;;;;;4973844;28;20216;-65
2023/09/16 02:16:16;;;;;;;3.73;3.33;;;23.60;54.00;;;;;;4973832;28;20495;-66
2023/09/16 02:18:42;;;;;;;3.47;3.17;;;23.60;54.10;;;;;;4973958;28;20201;-66
2023/09/16 02:21:08;;;;;;;4.50;3.13;;;23.60;54.10;;;;;;4973794;28;20660;-66
2023/09/16 02:23:33;;;;;;;3.63;3.33;;;23.60;54.10;;;;;;4973859;28;20174;-66
2023/09/16 02:26:01;;;;;;;3.40;3.10;;;23.60;54.10;;;;;;4973808;28;20409;-66
2023/09/16 02:28:27;;;;;;;3.50;3.10;;;23.60;54.20;;;;;;4973801;28;20182;-66
2023/09/16 02:30:52;;;;;;;3.47;3.17;;;23.60;54.10;;;;;;4973636;28;20481;-66
2023/09/16 02:33:18;;;;;;;4.80;3.73;;;23.60;54.10;;;;;;4973593;28;20225;-66
2023/09/16 02:35:43;;;;;;;3.27;2.97;;;23.60;54.10;;;;;;4973505;28;20202;-66
2023/09/16 02:38:09;;;;;;;3.70;3.40;;;23.60;54.00;;;;;;4973469;28;20178;-65
2023/09/16 02:40:40;;;;;;;3.50;3.10;;;23.60;54.10;;;;;;4973534;28;20237;-66
2023/09/16 02:43:06;;;;;;;3.70;3.40;;;23.60;53.90;;;;;;4973465;28;20432;-66
2023/09/16 02:45:32;;;;;;;4.10;3.23;;;23.60;54.00;;;;;;4973398;28;20786;-65
2023/09/16 02:47:57;;;;;;;3.63;3.33;;;23.60;54.00;;;;;;4973383;28;20445;-65
2023/09/16 02:50:23;;;;;;;3.53;3.23;;;23.60;54.00;;;;;;4973335;28;20193;-66
2023/09/16 02:52:48;;;;;;;3.43;3.13;;;23.60;53.90;;;;;;4973128;28;20743;-66
2023/09/16 02:55:16;;;;;;;3.47;3.17;;;23.60;53.90;;;;;;5004352;28;20189;-66
2023/09/16 02:57:41;;;;;;;4.53;3.60;;;23.60;53.90;;;;;;4973454;28;20847;-66
2023/09/16 03:00:07;;;;;;;3.57;3.23;;;23.60;53.90;;;;;;4973164;28;20405;-66
2023/09/16 03:02:33;;;;;;;3.17;2.87;;;23.60;53.90;;;;;;4973075;28;20217;-66
2023/09/16 03:04:59;;;;;;;3.80;3.47;;;23.60;54.00;;;;;;4973057;28;20428;-66
2023/09/16 03:07:24;;;;;;;3.73;3.33;;;23.50;53.90;;;;;;4973091;28;20321;-66
2023/09/16 03:09:50;;;;;;;4.10;3.70;;;23.60;53.90;;;;;;4973230;28;20178;-66
2023/09/16 03:12:15;;;;;;;4.23;3.40;;;23.60;54.00;;;;;;4972744;28;20709;-66
2023/09/16 03:14:41;;;;;;;3.70;3.40;;;23.50;53.80;;;;;;4972946;28;20931;-66
2023/09/16 03:17:06;;;;;;;3.73;3.43;;;23.50;53.90;;;;;;4972755;28;20201;-66
2023/09/16 03:19:32;;;;;;;3.90;3.60;;;23.50;53.90;;;;;;4971911;28;20165;-66
2023/09/16 03:21:57;;;;;;;3.60;3.30;;;23.50;53.80;;;;;;4972668;28;20224;-66
2023/09/16 03:24:23;;;;;;;3.63;3.33;;;23.50;53.70;;;;;;4972741;28;20540;-66
2023/09/16 03:26:49;;;;;;;4.50;3.80;;;23.50;53.70;;;;;;4972618;28;20188;-66
2023/09/16 03:29:14;;;;;;;3.53;3.23;;;23.50;53.70;;;;;;4972685;28;20264;-66
2023/09/16 03:31:40;;;;;;;3.70;3.40;;;23.50;53.70;;;;;;4972489;28;20622;-66
2023/09/16 03:34:05;;;;;;;3.30;3.00;;;23.50;53.80;;;;;;4972668;28;20178;-66
2023/09/16 03:36:31;;;;;;;3.37;3.07;;;23.50;53.70;;;;;;4972431;28;20193;-66
2023/09/16 03:38:57;;;;;;;3.90;3.57;;;23.50;53.70;;;;;;4972740;28;20182;-66
2023/09/16 03:41:22;;;;;;;5.03;3.70;;;23.50;53.70;;;;;;4972390;28;20233;-66
2023/09/16 03:43:48;;;;;;;3.10;2.80;;;23.40;53.70;;;;;;4972393;28;20173;-66
2023/09/16 03:46:13;;;;;;;5.73;3.40;;;23.50;53.80;;;;;;4972359;28;20185;-66
2023/09/16 03:48:39;;;;;;;3.50;3.20;;;23.50;53.80;;;;;;4972295;28;20224;-66
2023/09/16 03:51:07;;;;;;;3.53;3.23;;;23.50;53.80;;;;;;4972197;28;20200;-66
2023/09/16 03:53:34;;;;;;;3.40;3.10;;;23.50;53.80;;;;;;4972311;28;20181;-66
2023/09/16 03:56:05;;;;;;;3.63;3.33;;;23.50;53.80;;;;;;4972240;28;20456;-66
2023/09/16 03:58:31;;;;;;;3.80;3.23;;;23.40;53.70;;;;;;4970866;28;20412;-66
2023/09/16 04:00:57;;;;;;;3.80;3.50;;;23.50;53.80;;;;;;4970904;28;20954;-66
2023/09/16 04:03:22;;;;;;;4.10;3.70;;;23.50;53.70;;;;;;4972174;28;20414;-66
2023/09/16 04:05:48;;;;;;;3.93;3.63;;;23.50;53.60;;;;;;4972137;28;20213;-66
2023/09/16 04:08:14;;;;;;;4.83;3.50;;;23.40;53.50;;;;;;4972128;28;20196;-66
2023/09/16 04:10:39;;;;;;;3.50;3.20;;;23.50;53.60;;;;;;4972141;28;20645;-66
2023/09/16 04:13:05;;;;;;;4.00;3.60;;;23.50;53.70;;;;;;4971851;28;20217;-66
2023/09/16 04:15:30;;;;;;;4.73;3.33;;;23.50;53.70;;;;;;4972014;28;20197;-66
2023/09/16 04:17:56;;;;;;;3.90;3.50;;;23.50;53.70;;;;;;5002921;28;20252;-66
2023/09/16 04:20:24;;;;;;;3.70;3.40;;;23.50;53.70;;;;;;4971703;28;20549;-62
2023/09/16 04:22:49;;;;;;;3.70;3.40;;;23.50;53.80;;;;;;4971500;28;20577;-66
2023/09/16 04:25:15;;;;;;;4.03;3.23;;;23.50;53.80;;;;;;4971025;28;20413;-66
2023/09/16 04:27:41;;;;;;;4.07;3.77;;;23.50;53.80;;;;;;4970234;28;20625;-66
2023/09/16 04:30:08;;;;;;;3.93;3.53;;;23.40;53.70;;;;;;4971322;28;20273;-66
2023/09/16 04:32:33;;;;;;;4.00;3.70;;;23.40;53.70;;;;;;4974146;28;20276;-65
2023/09/16 04:34:59;;;;;;;5.47;3.60;;;23.50;53.70;;;;;;4973145;28;20440;-66
2023/09/16 04:37:25;;;;;;;4.10;3.70;;;23.40;53.70;;;;;;4975984;28;20177;-66
2023/09/16 04:39:50;;;;;;;4.10;3.70;;;23.50;53.70;;;;;;4975770;28;20174;-66
2023/09/16 04:42:16;;;;;;;4.00;3.70;;;23.50;53.70;;;;;;4975593;28;20268;-66
2023/09/16 04:44:41;;;;;;;3.90;3.33;;;23.40;53.70;;;;;;4975704;28;20176;-66
2023/09/16 04:47:07;;;;;;;3.93;3.53;;;23.50;53.80;;;;;;4975568;28;20177;-66
2023/09/16 04:49:33;;;;;;;3.37;3.07;;;23.40;53.70;;;;;;4975575;28;20173;-66
2023/09/16 04:51:58;;;;;;;3.60;3.20;;;23.50;53.70;;;;;;4975737;28;20225;-66
2023/09/16 04:54:24;;;;;;;4.00;3.13;;;23.50;53.70;;;;;;4975465;28;20185;-66
2023/09/16 04:56:50;;;;;;;4.20;3.80;;;23.40;53.70;;;;;;4975369;28;20206;-66
2023/09/16 04:59:15;;;;;;;5.73;3.90;;;23.40;53.60;;;;;;4975669;28;20256;-66
2023/09/16 05:01:41;;;;;;;3.63;3.33;;;23.40;53.60;;;;;;4975274;28;20214;-65
2023/09/16 05:04:06;;;;;;;3.80;2.93;;;23.40;53.70;;;;;;4975329;28;20201;-66
2023/09/16 05:06:32;;;;;;;4.00;3.60;;;23.40;53.60;;;;;;4975278;28;20182;-66
2023/09/16 05:08:57;;;;;;;3.53;3.23;;;23.50;53.70;;;;;;4975168;28;20181;-65
2023/09/16 05:11:23;;;;;;;4.00;3.50;;;23.40;53.70;;;;;;4975288;28;20244;-66
2023/09/16 05:13:51;;;;;;;5.33;3.10;;;23.40;53.70;;;;;;4975050;28;20604;-66
2023/09/16 05:16:16;;;;;;;4.20;3.33;;;23.40;53.70;;;;;;4974991;28;20292;-66
2023/09/16 05:18:42;;;;;;;4.87;4.43;;;23.40;53.70;;;;;;4975077;28;20491;-66
2023/09/16 05:21:07;;;;;;;4.30;3.90;;;23.40;53.60;;;;;;4974888;28;20178;-65
2023/09/16 05:23:34;;;;;;;4.00;3.60;;;23.40;53.60;;;;;;4974920;28;20684;-66
2023/09/16 05:26:00;;;;;;;4.37;3.93;;;23.40;53.60;;;;;;4974704;28;20555;-66
2023/09/16 05:28:25;;;;;;;5.07;3.50;;;23.40;53.70;;;;;;4974926;28;20410;-66
2023/09/16 05:30:56;;;;;;;4.00;3.37;;;23.40;53.70;;;;;;4974824;28;20500;-65
2023/09/16 05:33:23;;;;;;;4.67;3.93;;;23.40;53.60;;;;;;4975114;28;20177;-66
2023/09/16 05:35:49;;;;;;;3.83;3.33;;;23.30;53.50;;;;;;4974604;28;20809;-64
2023/09/16 05:38:14;;;;;;;5.17;4.00;;;23.40;53.60;;;;;;4974804;28;20416;-66
2023/09/16 05:40:40;;;;;;;3.87;3.43;;;23.40;53.60;;;;;;4974619;28;20683;-65
2023/09/16 05:43:06;;;;;;;3.90;3.60;;;23.40;53.50;;;;;;4972527;28;20201;-66
2023/09/16 05:45:31;;;;;;;5.27;4.20;;;23.40;53.50;;;;;;4974582;28;20257;-65
2023/09/16 05:48:01;;;;;;;4.10;3.00;;;23.30;53.40;;;;;;4974552;28;20173;-66
2023/09/16 05:50:27;;;;;;;4.20;3.40;;;23.30;53.60;;;;;;4974829;28;20237;-66
2023/09/16 05:52:53;;;;;;;3.30;3.00;;;23.30;53.60;;;;;;4974163;28;20432;-65
2023/09/16 05:55:18;;;;;;;3.23;2.93;;;23.30;53.60;;;;;;4974303;28;20174;-66
2023/09/16 05:57:44;;;;;;;5.10;3.70;;;23.30;53.50;;;;;;4974316;28;20178;-65
2023/09/16 06:00:10;;;;;;;5.70;3.60;;;23.30;53.50;;;;;;4974306;28;20166;-66
2023/09/16 06:02:38;;;;;;;4.37;3.80;;;23.30;53.50;;;;;;4974182;28;20696;-65
2023/09/16 06:05:09;;;;;;;3.93;3.37;;;23.30;53.60;;;;;;4974262;28;20405;-65
2023/09/16 06:07:39;;;;;;;3.60;3.30;;;23.30;53.50;;;;;;4974151;28;20405;-66
2023/09/16 06:10:06;;;;;;;4.10;3.70;;;23.20;53.50;;;;;;4973946;28;20903;-66
2023/09/16 06:12:33;;;;;;;3.87;3.47;;;23.30;53.70;;;;;;4973933;28;20459;-65
2023/09/16 06:14:58;;;;;;;4.60;3.33;;;23.30;53.60;;;;;;4974013;28;20409;-66
2023/09/16 06:17:24;;;;;;;9.30;4.10;;;23.20;53.60;;;;;;4973961;28;20986;-65
2023/09/16 06:19:54;;;;;;;3.70;3.40;;;23.20;53.60;;;;;;4973899;28;20264;-66
2023/09/16 06:22:23;;;;;;;3.47;3.17;;;23.30;53.80;;;;;;4973981;28;20281;-66
2023/09/16 06:24:51;;;;;;;3.80;3.50;;;23.30;53.70;;;;;;4974077;28;20755;-66
2023/09/16 06:27:17;;;;;;;4.60;3.80;;;23.30;53.70;;;;;;4972562;28;20413;-66
2023/09/16 06:29:43;;;;;;;3.83;3.53;;;23.30;53.80;;;;;;4973683;28;20417;-66
2023/09/16 06:32:09;;;;;;;3.73;3.30;;;23.30;53.80;;;;;;4973662;28;20807;-66
2023/09/16 06:34:35;;;;;;;4.80;3.90;;;23.30;53.70;;;;;;4973620;28;20427;-66
2023/09/16 06:37:01;;;;;;;3.57;3.27;;;23.30;53.70;;;;;;4973479;28;20200;-66
2023/09/16 06:39:26;;;;;;;4.47;4.07;;;23.30;53.70;;;;;;4973469;28;20185;-65
2023/09/16 06:41:52;;;;;;;3.87;3.13;;;23.30;53.70;;;;;;4973354;28;20193;-67
2023/09/16 06:44:17;;;;;;;6.70;4.23;;;23.30;54.30;;;;;;4973503;28;20174;-66
2023/09/16 06:46:43;;;;;;;3.90;3.50;;;23.30;53.80;;;;;;4973326;28;20192;-66
2023/09/16 06:49:09;;;;;;;5.30;3.83;;;23.30;53.80;;;;;;4973309;28;20182;-66
2023/09/16 06:51:35;;;;;;;3.87;3.57;;;23.30;53.70;;;;;;4973343;28;20208;-66
2023/09/16 06:54:01;;;;;;;3.97;3.60;;;23.30;53.70;;;;;;4970697;28;20940;-66
2023/09/16 06:56:27;;;;;;;5.67;4.27;;;23.30;53.70;;;;;;4972901;28;20559;-66
2023/09/16 06:58:56;;;;;;;4.03;3.60;;;23.30;54.30;;;;;;4973257;28;20648;-66
2023/09/16 07:01:22;;;;;;;4.20;3.80;;;23.30;53.70;;;;;;4971924;28;20444;-67
2023/09/16 07:03:48;;;;;;;5.00;4.23;;;23.30;53.70;;;;;;4971264;28;20508;-66
2023/09/16 07:06:13;;;;;;;4.83;4.33;;;23.30;53.60;;;;;;4971468;28;20521;-66
2023/09/16 07:08:39;;;;;;;6.10;4.10;;;23.30;53.70;;;;;;4972627;28;20190;-66
2023/09/16 07:11:05;;;;;;;4.80;3.67;;;23.30;53.60;;;;;;4972748;28;20216;-67
2023/09/16 07:13:30;;;;;;;4.40;4.00;;;23.30;53.70;;;;;;4971453;28;20197;-66
2023/09/16 07:15:56;;;;;;;5.17;4.00;;;23.30;53.70;;;;;;4972835;28;20244;-66
2023/09/16 07:18:22;;;;;;;5.80;3.67;;;23.30;53.80;;;;;;4972865;28;20178;-66
2023/09/16 07:20:49;;;;;;;5.73;4.90;;;23.30;53.80;;;;;;4972686;28;20413;-66
2023/09/16 07:23:15;;;;;;;7.37;3.60;;;23.30;53.90;;;;;;4971902;28;20432;-66
2023/09/16 07:25:40;;;;;;;4.17;3.77;;;23.30;53.80;;;;;;4972629;28;20429;-66
2023/09/16 07:28:07;;;;;;;3.77;3.10;;;23.30;53.90;;;;;;4972725;28;20185;-66
2023/09/16 07:30:33;;;;;;;3.53;3.23;;;23.30;54.00;;;;;;4972686;28;20173;-66
2023/09/16 07:32:59;;;;;;;4.63;4.23;;;23.30;54.00;;;;;;4972521;28;20432;-66
2023/09/16 07:35:25;;;;;;;3.90;3.50;;;23.30;54.00;;;;;;4972510;28;20424;-66
2023/09/16 07:37:51;;;;;;;3.97;3.60;;;23.30;54.00;;;;;;4972496;28;20255;-67
2023/09/16 07:40:17;;;;;;;3.83;3.50;;;23.30;54.00;;;;;;4972467;28;20180;-66
2023/09/16 07:42:42;;;;;;;4.13;3.70;;;23.30;54.10;;;;;;4972476;28;20437;-66
2023/09/16 07:45:09;;;;;;;4.27;3.80;;;23.30;54.10;;;;;;4972399;28;20181;-66
2023/09/16 07:47:34;;;;;;;5.50;3.87;;;23.30;54.10;;;;;;4970976;28;20232;-66
2023/09/16 07:50:00;;;;;;;4.13;3.50;;;23.40;54.20;;;;;;4972339;28;20417;-66
2023/09/16 07:52:26;;;;;;;2.87;2.67;;;23.40;54.20;;;;;;4972344;28;20575;-66
2023/09/16 07:54:54;;;;;;;3.63;3.33;;;23.40;54.30;;;;;;4972317;28;20185;-66
2023/09/16 07:57:20;;;;;;;3.57;3.27;;;23.40;54.30;;;;;;4972230;28;20695;-66
2023/09/16 07:59:45;;;;;;;4.60;3.47;;;23.40;54.20;;;;;;4972304;28;20417;-66
2023/09/16 08:02:11;;;;;;;20.33;3.67;;;23.40;54.20;;;;;;4972136;28;20198;-66
2023/09/16 08:04:36;;;;;;;3.60;3.03;;;23.40;54.30;;;;;;4971864;28;20190;-68
2023/09/16 08:07:02;;;;;;;4.57;3.47;;;23.30;54.30;;;;;;4972097;28;20196;-67
2023/09/16 08:09:27;;;;;;;4.40;4.00;;;23.30;54.30;;;;;;4972126;28;20209;-67
2023/09/16 08:11:53;;;;;;;3.93;3.63;;;23.40;54.40;;;;;;4972167;28;20194;-67
2023/09/16 08:14:19;;;;;;;3.70;2.93;;;23.40;54.40;;;;;;4970803;28;20194;-66
2023/09/16 08:16:44;;;;;;;3.60;3.30;;;23.40;54.40;;;;;;4972037;28;20574;-67
2023/09/16 08:19:10;;;;;;;4.27;3.10;;;23.40;54.50;;;;;;4971823;28;20166;-67
2023/09/16 08:21:35;;;;;;;3.17;2.87;;;23.40;54.50;;;;;;4972001;28;20244;-66
2023/09/16 08:24:01;;;;;;;4.07;3.67;;;23.40;54.60;;;;;;4972017;28;20169;-66
2023/09/16 08:26:28;;;;;;;4.87;3.50;;;23.40;54.60;;;;;;4971765;28;20973;-67
2023/09/16 08:28:54;;;;;;;4.87;3.53;;;23.40;54.60;;;;;;4971971;28;20700;-67
2023/09/16 08:31:20;;;;;;;4.23;2.93;;;23.40;54.50;;;;;;4971778;28;20433;-67
2023/09/16 08:33:45;;;;;;;4.00;3.40;;;23.40;54.60;;;;;;4971840;28;20184;-66
2023/09/16 08:36:11;;;;;;;3.50;2.80;;;23.40;54.60;;;;;;4969992;28;20280;-67
2023/09/16 08:38:36;;;;;;;4.13;3.17;;;23.40;54.60;;;;;;4970441;28;20264;-66
2023/09/16 08:41:17;;;;;;;3.97;3.60;;;23.40;54.60;;;;;;4971337;28;20178;-66
2023/09/16 08:43:44;;;;;;;3.90;3.60;;;23.40;54.60;;;;;;4971346;28;20178;-66
2023/09/16 08:46:17;;;;;;;3.70;3.33;;;23.40;54.60;;;;;;4971304;28;20453;-66
2023/09/16 08:48:46;;;;;;;4.83;3.70;;;23.40;54.60;;;;;;4968928;28;20424;-66
2023/09/16 08:51:16;;;;;;;4.03;3.33;;;23.40;54.60;;;;;;4971232;28;20791;-66
2023/09/16 08:53:43;;;;;;;4.10;3.40;;;23.40;54.70;;;;;;4971519;28;20417;-66
2023/09/16 08:56:10;;;;;;;3.97;3.50;;;23.40;55.30;;;;;;4969931;28;20468;-66
2023/09/16 08:58:36;;;;;;;3.70;3.40;;;23.40;54.70;;;;;;4971269;28;20970;-66
2023/09/16 09:01:02;;;;;;;3.50;3.20;;;23.40;54.70;;;;;;4971159;28;20452;-67
2023/09/16 09:03:34;;;;;;;3.90;3.60;;;23.50;54.80;;;;;;4971428;28;20424;-66
2023/09/16 09:06:00;;;;;;;3.53;3.23;;;23.50;54.80;;;;;;4971539;28;20424;-66
2023/09/16 09:08:26;;;;;;;4.87;3.50;;;23.40;54.80;;;;;;4971590;28;20429;-67
2023/09/16 09:10:52;;;;;;;4.30;3.90;;;23.40;54.80;;;;;;4971591;28;20486;-67
2023/09/16 09:13:19;;;;;;;4.50;4.10;;;23.50;54.90;;;;;;4971424;28;20217;-66
2023/09/16 09:15:47;;;;;;;3.63;3.33;;;23.50;55.00;;;;;;4972144;28;20215;-66
2023/09/16 09:18:15;;;;;;;4.30;3.90;;;23.50;54.90;;;;;;4975073;28;20420;-66
2023/09/16 09:20:41;;;;;;;3.50;3.20;;;23.50;55.00;;;;;;4975017;28;20475;-66
2023/09/16 09:23:07;;;;;;;3.43;3.13;;;23.50;55.00;;;;;;4974904;28;20428;-67
2023/09/16 09:25:36;;;;;;;3.70;3.40;;;23.50;55.00;;;;;;4974871;28;20205;-66
2023/09/16 09:28:03;;;;;;;3.40;3.10;;;23.50;55.00;;;;;;4974974;28;20468;-65
2023/09/16 09:30:31;;;;;;;4.27;3.87;;;23.50;55.00;;;;;;4975095;28;20413;-66
2023/09/16 09:32:58;;;;;;;4.67;4.27;;;23.50;55.10;;;;;;4974977;28;20520;-66
2023/09/16 09:35:25;;;;;;;3.53;3.23;;;23.50;55.10;;;;;;4975089;28;20459;-67
2023/09/16 09:37:51;;;;;;;3.23;2.93;;;23.50;55.00;;;;;;4974770;28;20397;-67
2023/09/16 09:40:18;;;;;;;3.30;3.00;;;23.50;55.10;;;;;;4974682;28;20401;-66
2023/09/16 09:42:48;;;;;;;3.60;3.30;;;23.50;55.10;;;;;;4974913;28;20429;-66
2023/09/16 09:45:16;;;;;;;4.30;3.70;;;23.50;55.10;;;;;;4974581;28;20451;-66
2023/09/16 09:47:43;;;;;;;4.37;3.97;;;23.60;55.20;;;;;;4974587;28;20439;-66
2023/09/16 09:50:14;;;;;;;3.70;3.40;;;23.60;55.20;;;;;;4974634;28;20456;-67
2023/09/16 09:52:54;;;;;;;4.87;4.47;;;23.60;55.30;;;;;;4974327;28;20437;-66
2023/09/16 09:55:22;;;;;;;4.70;3.73;;;23.60;55.10;;;;;;4974320;28;20400;-67
2023/09/16 09:57:50;;;;;;;3.57;3.27;;;23.60;55.10;;;;;;4974153;28;20782;-66
2023/09/16 10:00:18;;;;;;;5.60;3.60;;;23.60;55.10;;;;;;4974302;28;20846;-67
2023/09/16 10:02:45;;;;;;;4.67;4.27;;;23.50;55.00;;;;;;4974198;28;20421;-67
2023/09/16 10:05:15;;;;;;;4.00;3.23;;;23.60;55.10;;;;;;4974168;28;20405;-66
2023/09/16 10:07:42;;;;;;;4.13;3.67;;;23.60;55.10;;;;;;4974361;28;20744;-67
2023/09/16 10:10:21;;;;;;;3.80;3.13;;;23.60;55.10;;;;;;4974076;28;20460;-67
2023/09/16 10:12:50;;;;;;;4.13;3.83;;;23.60;55.00;;;;;;4974134;28;20453;-66
2023/09/16 10:15:16;;;;;;;4.10;3.77;;;23.60;55.10;;;;;;4973917;28;20405;-66
2023/09/16 10:17:43;;;;;;;5.33;3.40;;;23.60;55.10;;;;;;4974091;28;20419;-65
2023/09/16 10:20:11;;;;;;;4.50;4.10;;;23.60;55.10;;;;;;4973941;28;20177;-67
2023/09/16 10:22:40;;;;;;;4.10;3.70;;;23.60;55.00;;;;;;4974013;28;20867;-67
2023/09/16 10:25:07;;;;;;;4.23;3.83;;;23.60;55.10;;;;;;4973904;28;20411;-67
2023/09/16 10:27:58;;;;;;;3.57;3.27;;;23.60;55.10;;;;;;4973357;28;20440;-66
2023/09/16 10:30:25;;;;;;;4.53;4.13;;;23.60;55.10;;;;;;4973739;28;20400;-66
2023/09/16 10:32:51;;;;;;;4.27;3.87;;;23.60;55.10;;;;;;4973044;28;20460;-66
2023/09/16 10:35:19;;;;;;;3.80;3.40;;;23.60;55.10;;;;;;4973012;28;20427;-66
2023/09/16 10:37:46;;;;;;;3.30;3.00;;;23.70;55.20;;;;;;4971820;28;20779;-67
2023/09/16 10:40:13;;;;;;;3.27;2.97;;;23.70;55.20;;;;;;4971818;28;20828;-67
2023/09/16 10:42:40;;;;;;;3.60;3.30;;;23.60;55.00;;;;;;4971858;28;20528;-66
2023/09/16 10:45:11;;;;;;;3.93;3.57;;;23.70;55.20;;;;;;4971578;28;20414;-66
2023/09/16 10:47:37;;;;;;;3.87;3.43;;;23.70;55.20;;;;;;4972178;28;20460;-66
2023/09/16 10:50:02;;;;;;;4.13;3.73;;;23.70;55.10;;;;;;4973422;28;20440;-67
2023/09/16 10:52:53;;;;;;;3.90;3.50;;;23.70;55.70;;;;;;4973366;28;20233;-67
2023/09/16 10:55:45;;;;;;;3.90;3.60;;;23.70;55.10;;;;;;4968160;28;20197;-67
2023/09/16 10:58:46;;;;;;;4.77;3.73;;;23.70;55.20;;;;;;4973343;28;20393;-67
2023/09/16 11:01:18;;;;;;;4.10;3.30;;;23.70;55.20;;;;;;4973175;28;20791;-66
2023/09/16 11:03:51;;;;;;;4.77;3.97;;;23.70;55.20;;;;;;4973237;28;20413;-67
2023/09/16 11:06:16;;;;;;;4.03;3.73;;;23.70;55.30;;;;;;4973152;28;20866;-66
2023/09/16 11:08:42;;;;;;;3.23;2.93;;;23.70;55.30;;;;;;4973102;28;20413;-66
2023/09/16 11:11:08;;;;;;;4.27;3.00;;;23.70;55.30;;;;;;4971945;28;20185;-67
2023/09/16 11:13:34;;;;;;;4.23;3.80;;;23.70;55.30;;;;;;4969659;28;20264;-67
2023/09/16 11:16:01;;;;;;;4.07;3.77;;;23.70;55.10;;;;;;4971494;28;20884;-66
2023/09/16 11:18:27;;;;;;;4.00;3.70;;;23.70;55.20;;;;;;4971326;28;20177;-67
2023/09/16 11:20:54;;;;;;;4.13;3.63;;;23.70;55.20;;;;;;4972718;28;20405;-66
2023/09/16 11:23:21;;;;;;;4.03;3.37;;;23.70;55.10;;;;;;4972567;28;20557;-66
2023/09/16 11:25:47;;;;;;;6.07;4.10;;;23.70;55.10;;;;;;4972613;28;20401;-67
2023/09/16 11:28:14;;;;;;;5.27;3.27;;;23.80;55.20;;;;;;4972045;28;21098;-66
2023/09/16 11:30:52;;;;;;;4.13;3.50;;;23.80;55.20;;;;;;4972587;28;20424;-66
2023/09/16 11:33:26;;;;;;;5.33;3.73;;;23.80;55.20;;;;;;4970665;28;20451;-66
2023/09/16 11:36:13;;;;;;;4.57;4.17;;;23.80;55.10;;;;;;4972424;28;21033;-66
2023/09/16 11:38:58;;;;;;;5.40;4.90;;;23.80;55.20;;;;;;4972365;28;20390;-67
2023/09/16 11:41:24;;;;;;;6.77;5.20;;;23.80;55.30;;;;;;4972117;28;20420;-67
2023/09/16 11:43:50;;;;;;;7.90;4.63;;;23.70;55.10;;;;;;4972341;28;20409;-67
2023/09/16 11:46:16;;;;;;;11.33;4.03;;;23.80;55.20;;;;;;4972279;28;20924;-66
2023/09/16 11:48:53;;;;;;;5.20;4.20;;;23.80;55.30;;;;;;4972310;28;20416;-67
2023/09/16 11:51:21;;;;;;;4.30;3.80;;;23.80;55.20;;;;;;4972026;28;20582;-67
2023/09/16 11:53:48;;;;;;;4.33;3.93;;;23.80;55.30;;;;;;4971855;28;20417;-66
2023/09/16 11:56:15;;;;;;;5.90;4.23;;;23.80;55.20;;;;;;4970925;28;20457;-66
2023/09/16 11:58:42;;;;;;;4.90;3.87;;;23.80;55.20;;;;;;4971820;28;20964;-66
2023/09/16 12:01:11;;;;;;;5.63;4.63;;;23.80;55.20;;;;;;4969254;28;20787;-67
2023/09/16 12:03:37;;;;;;;5.83;3.90;;;23.80;55.10;;;;;;4971627;28;20421;-66
2023/09/16 12:06:03;;;;;;;5.10;4.30;;;23.80;55.10;;;;;;4971768;28;20471;-67
2023/09/16 12:08:29;;;;;;;3.87;3.57;;;23.80;55.00;;;;;;4971660;28;20328;-65
2023/09/16 12:10:55;;;;;;;5.17;4.67;;;23.80;55.00;;;;;;4971388;28;20193;-66
2023/09/16 12:13:31;;;;;;;7.50;4.27;;;23.90;55.10;;;;;;4997250;28;20836;-66
2023/09/16 12:15:58;;;;;;;4.77;3.47;;;23.80;55.10;;;;;;4971769;28;20687;-66
2023/09/16 12:18:23;;;;;;;4.00;3.63;;;23.80;55.00;;;;;;4972093;28;20463;-66
2023/09/16 12:20:49;;;;;;;5.70;3.90;;;23.80;55.00;;;;;;4971955;28;20500;-66
2023/09/16 12:23:18;;;;;;;3.80;3.50;;;23.80;55.00;;;;;;4972234;28;20672;-66
2023/09/16 12:25:44;;;;;;;5.47;3.83;;;23.80;54.90;;;;;;4971946;28;20409;-66
2023/09/16 12:28:16;;;;;;;5.40;3.60;;;23.90;55.00;;;;;;4970721;28;20413;-66
2023/09/16 12:30:51;;;;;;;4.73;3.97;;;23.90;54.90;;;;;;4972260;28;20986;-66
2023/09/16 12:33:19;;;;;;;4.23;3.43;;;23.90;55.00;;;;;;4972114;28;20439;-67
2023/09/16 12:35:46;;;;;;;7.20;3.53;;;23.90;55.00;;;;;;4971801;28;20468;-67
2023/09/16 12:38:12;;;;;;;3.90;3.43;;;23.90;55.00;;;;;;4971880;28;20408;-67
2023/09/16 12:40:37;;;;;;;3.53;3.10;;;23.90;54.90;;;;;;4971857;28;20417;-67
2023/09/16 12:43:05;;;;;;;5.70;3.70;;;23.90;54.90;;;;;;4971772;28;20699;-67
2023/09/16 12:45:31;;;;;;;6.07;4.10;;;23.90;55.00;;;;;;4971590;28;20436;-66
2023/09/16 12:47:57;;;;;;;6.27;3.57;;;23.90;55.00;;;;;;4971658;28;20504;-67